sensor_id;sensor_type;location;lat;lon;timestamp;temperature;humidity
4530;DHT22;2277;51.626;7.516;2023-02-28T00:01:23;4.70;99.90
4530;DHT22;2277;51.626;7.516;2023-02-28T00:03:48;4.70;99.90
4530;DHT22;2277;51.626;7.516;2023-02-28T00:06:14;4.70;99.90
4530;DHT22;2277;51.626;7.516;2023-02-28T00:08:40;4.70;99.90
4530;DHT22;2277;51.626;7.516;2023-02-28T00:11:11;4.70;99.90
4530;DHT22;2277;51.626;7.516;2023-02-28T00:13:40;4.60;99.90
4530;DHT22;2277;51.626;7.516;2023-02-28T00:16:11;4.60;99.90
4530;DHT22;2277;51.626;7.516;2023-02-28T00:18:37;4.60;99.90
4530;DHT22;2277;51.626;7.516;2023-02-28T00:21:03;4.50;99.90
4530;DHT22;2277;51.626;7.516;2023-02-28T00:23:29;4.50;99.90
4530;DHT22;2277;51.626;7.516;2023-02-28T00:25:55;4.60;99.90
4530;DHT22;2277;51.626;7.516;2023-02-28T00:28:22;4.50;99.90
4530;DHT22;2277;51.626;7.516;2023-02-28T00:30:48;4.50;99.90
4530;DHT22;2277;51.626;7.516;2023-02-28T00:33:13;4.40;99.90
4530;DHT22;2277;51.626;7.516;2023-02-28T00:35:39;4.30;99.90
4530;DHT22;2277;51.626;7.516;2023-02-28T00:38:05;4.40;99.90
4530;DHT22;2277;51.626;7.516;2023-02-28T00:40:31;4.40;99.90
4530;DHT22;2277;51.626;7.516;2023-02-28T00:42:57;4.40;99.90
4530;DHT22;2277;51.626;7.516;2023-02-28T00:45:22;4.40;99.90
4530;DHT22;2277;51.626;7.516;2023-02-28T00:47:48;4.40;99.90
4530;DHT22;2277;51.626;7.516;2023-02-28T00:50:17;4.40;99.90
4530;DHT22;2277;51.626;7.516;2023-02-28T00:52:43;4.40;99.90
4530;DHT22;2277;51.626;7.516;2023-02-28T00:55:09;4.30;99.90
4530;DHT22;2277;51.626;7.516;2023-02-28T00:57:35;4.30;99.90
4530;DHT22;2277;51.626;7.516;2023-02-28T01:00:00;4.30;99.90
4530;DHT22;2277;51.626;7.516;2023-02-28T01:02:26;4.30;99.90
4530;DHT22;2277;51.626;7.516;2023-02-28T01:04:52;4.20;99.90
4530;DHT22;2277;51.626;7.516;2023-02-28T01:07:18;4.20;99.90
4530;DHT22;2277;51.626;7.516;2023-02-28T01:09:43;4.10;99.90
4530;DHT22;2277;51.626;7.516;2023-02-28T01:12:09;4.10;99.90
4530;DHT22;2277;51.626;7.516;2023-02-28T01:14:35;4.10;99.90
4530;DHT22;2277;51.626;7.516;2023-02-28T01:17:01;4.00;99.90
4530;DHT22;2277;51.626;7.516;2023-02-28T01:19:27;4.00;99.90
4530;DHT22;2277;51.626;7.516;2023-02-28T01:21:53;4.00;99.90
4530;DHT22;2277;51.626;7.516;2023-02-28T01:24:18;3.90;99.90
4530;DHT22;2277;51.626;7.516;2023-02-28T01:26:44;3.90;99.90
4530;DHT22;2277;51.626;7.516;2023-02-28T01:29:10;3.90;99.90
4530;DHT22;2277;51.626;7.516;2023-02-28T01:31:35;3.80;99.90
4530;DHT22;2277;51.626;7.516;2023-02-28T01:34:01;3.70;99.90
4530;DHT22;2277;51.626;7.516;2023-02-28T01:36:27;3.60;99.90
4530;DHT22;2277;51.626;7.516;2023-02-28T01:38:53;3.60;99.90
4530;DHT22;2277;51.626;7.516;2023-02-28T01:41:27;3.60;99.90
4530;DHT22;2277;51.626;7.516;2023-02-28T01:43:59;3.50;99.90
4530;DHT22;2277;51.626;7.516;2023-02-28T01:46:29;3.40;99.90
4530;DHT22;2277;51.626;7.516;2023-02-28T01:51:44;3.50;99.90
4530;DHT22;2277;51.626;7.516;2023-02-28T01:54:21;3.40;99.90
4530;DHT22;2277;51.626;7.516;2023-02-28T01:57:00;3.30;99.90
4530;DHT22;2277;51.626;7.516;2023-02-28T02:02:00;3.40;99.90
4530;DHT22;2277;51.626;7.516;2023-02-28T02:04:32;3.40;99.90
4530;DHT22;2277;51.626;7.516;2023-02-28T02:06:59;3.30;99.90
4530;DHT22;2277;51.626;7.516;2023-02-28T02:09:25;3.30;99.90
4530;DHT22;2277;51.626;7.516;2023-02-28T02:11:51;3.30;99.90
4530;DHT22;2277;51.626;7.516;2023-02-28T02:17:57;3.20;99.90
4530;DHT22;2277;51.626;7.516;2023-02-28T02:23:41;3.10;99.90
4530;DHT22;2277;51.626;7.516;2023-02-28T02:34:43;2.90;99.90
4530;DHT22;2277;51.626;7.516;2023-02-28T02:40:19;2.90;99.90
4530;DHT22;2277;51.626;7.516;2023-02-28T02:42:59;2.80;99.90
4530;DHT22;2277;51.626;7.516;2023-02-28T02:45:43;2.80;99.90
4530;DHT22;2277;51.626;7.516;2023-02-28T02:48:12;2.80;99.90
4530;DHT22;2277;51.626;7.516;2023-02-28T02:50:44;2.70;99.90
4530;DHT22;2277;51.626;7.516;2023-02-28T02:53:11;2.70;99.90
4530;DHT22;2277;51.626;7.516;2023-02-28T02:55:41;2.70;99.90
4530;DHT22;2277;51.626;7.516;2023-02-28T02:58:14;2.70;99.90
4530;DHT22;2277;51.626;7.516;2023-02-28T03:00:54;2.70;99.90
4530;DHT22;2277;51.626;7.516;2023-02-28T03:03:23;2.70;99.90
4530;DHT22;2277;51.626;7.516;2023-02-28T03:05:55;2.70;99.90
4530;DHT22;2277;51.626;7.516;2023-02-28T03:08:22;2.60;99.90
4530;DHT22;2277;51.626;7.516;2023-02-28T03:11:11;2.70;99.90
4530;DHT22;2277;51.626;7.516;2023-02-28T03:27:55;2.40;99.90
4530;DHT22;2277;51.626;7.516;2023-02-28T03:33:08;2.50;99.90
4530;DHT22;2277;51.626;7.516;2023-02-28T03:35:47;2.60;99.90
4530;DHT22;2277;51.626;7.516;2023-02-28T03:38:21;2.50;99.90
4530;DHT22;2277;51.626;7.516;2023-02-28T03:40:51;2.60;99.90
4530;DHT22;2277;51.626;7.516;2023-02-28T03:43:26;2.50;99.90
4530;DHT22;2277;51.626;7.516;2023-02-28T03:45:54;2.50;99.90
4530;DHT22;2277;51.626;7.516;2023-02-28T03:48:31;2.60;99.90
4530;DHT22;2277;51.626;7.516;2023-02-28T03:51:02;2.50;99.90
4530;DHT22;2277;51.626;7.516;2023-02-28T03:53:42;2.50;99.90
4530;DHT22;2277;51.626;7.516;2023-02-28T03:58:54;2.40;99.90
4530;DHT22;2277;51.626;7.516;2023-02-28T04:01:33;2.40;99.90
4530;DHT22;2277;51.626;7.516;2023-02-28T04:04:01;2.40;99.90
4530;DHT22;2277;51.626;7.516;2023-02-28T04:06:31;2.40;99.90
4530;DHT22;2277;51.626;7.516;2023-02-28T04:08:57;2.30;99.90
4530;DHT22;2277;51.626;7.516;2023-02-28T04:13:48;2.30;99.90
4530;DHT22;2277;51.626;7.516;2023-02-28T04:16:14;2.30;99.90
4530;DHT22;2277;51.626;7.516;2023-02-28T04:18:40;2.20;99.90
4530;DHT22;2277;51.626;7.516;2023-02-28T04:21:06;2.20;99.90
4530;DHT22;2277;51.626;7.516;2023-02-28T04:23:32;2.20;99.90
4530;DHT22;2277;51.626;7.516;2023-02-28T04:25:58;2.20;99.90
4530;DHT22;2277;51.626;7.516;2023-02-28T04:28:24;2.20;99.90
4530;DHT22;2277;51.626;7.516;2023-02-28T04:30:57;2.00;99.90
4530;DHT22;2277;51.626;7.516;2023-02-28T04:33:23;2.00;99.90
4530;DHT22;2277;51.626;7.516;2023-02-28T04:36:01;2.00;99.90
4530;DHT22;2277;51.626;7.516;2023-02-28T04:38:29;2.00;99.90
4530;DHT22;2277;51.626;7.516;2023-02-28T04:40:57;2.00;99.90
4530;DHT22;2277;51.626;7.516;2023-02-28T04:43:23;2.10;99.90
4530;DHT22;2277;51.626;7.516;2023-02-28T04:45:48;2.10;99.90
4530;DHT22;2277;51.626;7.516;2023-02-28T04:48:14;2.10;99.90
4530;DHT22;2277;51.626;7.516;2023-02-28T04:50:40;2.00;99.90
4530;DHT22;2277;51.626;7.516;2023-02-28T04:53:05;2.00;99.90
4530;DHT22;2277;51.626;7.516;2023-02-28T04:55:31;2.00;99.90
4530;DHT22;2277;51.626;7.516;2023-02-28T04:57:57;2.00;99.90
4530;DHT22;2277;51.626;7.516;2023-02-28T05:00:24;1.90;99.90
4530;DHT22;2277;51.626;7.516;2023-02-28T05:02:50;1.90;99.90
4530;DHT22;2277;51.626;7.516;2023-02-28T05:05:16;1.90;99.90
4530;DHT22;2277;51.626;7.516;2023-02-28T05:07:43;1.90;99.90
4530;DHT22;2277;51.626;7.516;2023-02-28T05:10:10;1.90;99.90
4530;DHT22;2277;51.626;7.516;2023-02-28T05:12:36;1.90;99.90
4530;DHT22;2277;51.626;7.516;2023-02-28T05:15:01;1.90;99.90
4530;DHT22;2277;51.626;7.516;2023-02-28T05:17:28;1.80;99.90
4530;DHT22;2277;51.626;7.516;2023-02-28T05:19:53;1.80;99.90
4530;DHT22;2277;51.626;7.516;2023-02-28T05:22:19;1.80;99.90
4530;DHT22;2277;51.626;7.516;2023-02-28T05:24:44;1.80;99.90
4530;DHT22;2277;51.626;7.516;2023-02-28T05:27:10;1.80;99.90
4530;DHT22;2277;51.626;7.516;2023-02-28T05:29:36;1.80;99.90
4530;DHT22;2277;51.626;7.516;2023-02-28T05:32:10;1.80;99.90
4530;DHT22;2277;51.626;7.516;2023-02-28T05:34:37;1.70;99.90
4530;DHT22;2277;51.626;7.516;2023-02-28T05:37:03;1.70;99.90
4530;DHT22;2277;51.626;7.516;2023-02-28T05:39:29;1.70;99.90
4530;DHT22;2277;51.626;7.516;2023-02-28T05:41:54;1.70;99.90
4530;DHT22;2277;51.626;7.516;2023-02-28T05:44:20;1.70;99.90
4530;DHT22;2277;51.626;7.516;2023-02-28T05:46:46;1.70;99.90
4530;DHT22;2277;51.626;7.516;2023-02-28T05:49:11;1.70;99.90
4530;DHT22;2277;51.626;7.516;2023-02-28T05:51:37;1.60;99.90
4530;DHT22;2277;51.626;7.516;2023-02-28T05:54:05;1.60;99.90
4530;DHT22;2277;51.626;7.516;2023-02-28T05:56:31;1.60;99.90
4530;DHT22;2277;51.626;7.516;2023-02-28T05:58:57;1.60;99.90
4530;DHT22;2277;51.626;7.516;2023-02-28T06:01:37;1.70;99.90
4530;DHT22;2277;51.626;7.516;2023-02-28T06:04:06;1.70;99.90
4530;DHT22;2277;51.626;7.516;2023-02-28T06:06:32;1.70;99.90
4530;DHT22;2277;51.626;7.516;2023-02-28T06:08:59;1.70;99.90
4530;DHT22;2277;51.626;7.516;2023-02-28T06:11:26;1.60;99.90
4530;DHT22;2277;51.626;7.516;2023-02-28T06:13:57;1.60;99.90
4530;DHT22;2277;51.626;7.516;2023-02-28T06:16:25;1.50;99.90
4530;DHT22;2277;51.626;7.516;2023-02-28T06:18:51;1.50;99.90
4530;DHT22;2277;51.626;7.516;2023-02-28T06:21:18;1.40;99.90
4530;DHT22;2277;51.626;7.516;2023-02-28T06:23:44;1.40;99.90
4530;DHT22;2277;51.626;7.516;2023-02-28T06:26:10;1.40;99.90
4530;DHT22;2277;51.626;7.516;2023-02-28T06:28:36;1.40;99.90
4530;DHT22;2277;51.626;7.516;2023-02-28T06:31:14;1.50;99.90
4530;DHT22;2277;51.626;7.516;2023-02-28T06:33:41;1.40;99.90
4530;DHT22;2277;51.626;7.516;2023-02-28T06:36:08;1.40;99.90
4530;DHT22;2277;51.626;7.516;2023-02-28T06:38:34;1.40;99.90
4530;DHT22;2277;51.626;7.516;2023-02-28T06:41:01;1.40;99.90
4530;DHT22;2277;51.626;7.516;2023-02-28T06:43:31;1.40;99.90
4530;DHT22;2277;51.626;7.516;2023-02-28T06:46:00;1.40;99.90
4530;DHT22;2277;51.626;7.516;2023-02-28T06:48:27;1.40;99.90
4530;DHT22;2277;51.626;7.516;2023-02-28T06:51:02;1.40;99.90
4530;DHT22;2277;51.626;7.516;2023-02-28T06:53:28;1.40;99.90
4530;DHT22;2277;51.626;7.516;2023-02-28T06:55:53;1.40;99.90
4530;DHT22;2277;51.626;7.516;2023-02-28T06:58:19;1.40;99.90
4530;DHT22;2277;51.626;7.516;2023-02-28T07:00:45;1.40;99.90
4530;DHT22;2277;51.626;7.516;2023-02-28T07:03:11;1.40;99.90
4530;DHT22;2277;51.626;7.516;2023-02-28T07:05:38;1.50;99.90
4530;DHT22;2277;51.626;7.516;2023-02-28T07:08:05;1.50;99.90
4530;DHT22;2277;51.626;7.516;2023-02-28T07:10:34;1.60;99.90
4530;DHT22;2277;51.626;7.516;2023-02-28T07:13:03;1.70;99.90
4530;DHT22;2277;51.626;7.516;2023-02-28T07:15:29;1.70;99.90
4530;DHT22;2277;51.626;7.516;2023-02-28T07:17:55;1.70;99.90
4530;DHT22;2277;51.626;7.516;2023-02-28T07:20:22;1.80;99.90
4530;DHT22;2277;51.626;7.516;2023-02-28T07:22:48;1.80;99.90
4530;DHT22;2277;51.626;7.516;2023-02-28T07:25:21;1.90;99.90
4530;DHT22;2277;51.626;7.516;2023-02-28T07:27:46;1.90;99.90
4530;DHT22;2277;51.626;7.516;2023-02-28T07:30:13;1.90;99.90
4530;DHT22;2277;51.626;7.516;2023-02-28T07:32:39;2.00;99.90
4530;DHT22;2277;51.626;7.516;2023-02-28T07:35:04;2.00;99.90
4530;DHT22;2277;51.626;7.516;2023-02-28T07:37:30;2.00;99.90
4530;DHT22;2277;51.626;7.516;2023-02-28T07:40:04;2.00;99.90
4530;DHT22;2277;51.626;7.516;2023-02-28T07:42:32;2.00;99.90
4530;DHT22;2277;51.626;7.516;2023-02-28T07:44:57;2.10;99.90
4530;DHT22;2277;51.626;7.516;2023-02-28T07:47:24;2.20;99.90
4530;DHT22;2277;51.626;7.516;2023-02-28T07:49:49;2.20;99.90
4530;DHT22;2277;51.626;7.516;2023-02-28T07:52:15;2.30;99.90
4530;DHT22;2277;51.626;7.516;2023-02-28T07:54:41;2.40;99.90
4530;DHT22;2277;51.626;7.516;2023-02-28T07:57:06;2.50;99.90
4530;DHT22;2277;51.626;7.516;2023-02-28T07:59:32;2.60;99.90
4530;DHT22;2277;51.626;7.516;2023-02-28T08:01:58;2.80;99.90
4530;DHT22;2277;51.626;7.516;2023-02-28T08:04:24;3.00;99.90
4530;DHT22;2277;51.626;7.516;2023-02-28T08:06:50;3.00;99.90
4530;DHT22;2277;51.626;7.516;2023-02-28T08:09:17;3.20;99.90
4530;DHT22;2277;51.626;7.516;2023-02-28T08:11:42;3.40;99.90
4530;DHT22;2277;51.626;7.516;2023-02-28T08:14:08;3.70;99.90
4530;DHT22;2277;51.626;7.516;2023-02-28T08:16:34;3.80;99.90
4530;DHT22;2277;51.626;7.516;2023-02-28T08:18:59;3.90;99.90
4530;DHT22;2277;51.626;7.516;2023-02-28T08:21:25;4.10;99.90
4530;DHT22;2277;51.626;7.516;2023-02-28T08:23:51;4.40;99.90
4530;DHT22;2277;51.626;7.516;2023-02-28T08:26:17;4.60;99.90
4530;DHT22;2277;51.626;7.516;2023-02-28T08:28:43;4.80;99.90
4530;DHT22;2277;51.626;7.516;2023-02-28T08:31:11;5.00;99.90
4530;DHT22;2277;51.626;7.516;2023-02-28T08:33:37;5.00;99.90
4530;DHT22;2277;51.626;7.516;2023-02-28T08:36:04;5.20;99.90
4530;DHT22;2277;51.626;7.516;2023-02-28T08:38:31;5.50;99.90
4530;DHT22;2277;51.626;7.516;2023-02-28T08:41:01;5.60;99.90
4530;DHT22;2277;51.626;7.516;2023-02-28T08:43:28;5.70;99.90
4530;DHT22;2277;51.626;7.516;2023-02-28T08:45:55;5.70;99.90
4530;DHT22;2277;51.626;7.516;2023-02-28T08:48:23;5.50;99.90
4530;DHT22;2277;51.626;7.516;2023-02-28T08:51:06;5.70;99.90
4530;DHT22;2277;51.626;7.516;2023-02-28T08:53:32;6.10;99.90
4530;DHT22;2277;51.626;7.516;2023-02-28T08:56:04;6.40;99.90
4530;DHT22;2277;51.626;7.516;2023-02-28T08:58:31;6.70;99.90
4530;DHT22;2277;51.626;7.516;2023-02-28T09:00:56;6.70;99.90
4530;DHT22;2277;51.626;7.516;2023-02-28T09:03:23;6.50;99.90
4530;DHT22;2277;51.626;7.516;2023-02-28T09:05:56;6.60;99.90
4530;DHT22;2277;51.626;7.516;2023-02-28T09:08:23;6.60;99.90
4530;DHT22;2277;51.626;7.516;2023-02-28T09:10:49;6.50;99.90
4530;DHT22;2277;51.626;7.516;2023-02-28T09:13:14;6.60;99.90
4530;DHT22;2277;51.626;7.516;2023-02-28T09:15:40;6.90;99.90
4530;DHT22;2277;51.626;7.516;2023-02-28T09:18:06;7.00;99.10
4530;DHT22;2277;51.626;7.516;2023-02-28T09:20:31;7.20;99.10
4530;DHT22;2277;51.626;7.516;2023-02-28T09:22:57;7.20;97.90
4530;DHT22;2277;51.626;7.516;2023-02-28T09:25:22;7.40;97.80
4530;DHT22;2277;51.626;7.516;2023-02-28T09:27:48;7.30;96.40
4530;DHT22;2277;51.626;7.516;2023-02-28T09:30:14;7.40;96.80
4530;DHT22;2277;51.626;7.516;2023-02-28T09:32:40;7.50;95.90
4530;DHT22;2277;51.626;7.516;2023-02-28T09:35:06;7.30;94.60
4530;DHT22;2277;51.626;7.516;2023-02-28T09:37:31;7.40;94.80
4530;DHT22;2277;51.626;7.516;2023-02-28T09:39:57;7.40;93.30
4530;DHT22;2277;51.626;7.516;2023-02-28T09:42:30;7.50;93.50
4530;DHT22;2277;51.626;7.516;2023-02-28T09:44:56;8.00;95.50
4530;DHT22;2277;51.626;7.516;2023-02-28T09:47:42;8.40;94.10
4530;DHT22;2277;51.626;7.516;2023-02-28T09:50:29;8.10;91.50
4530;DHT22;2277;51.626;7.516;2023-02-28T09:52:59;8.40;93.50
4530;DHT22;2277;51.626;7.516;2023-02-28T09:55:36;8.40;91.80
4530;DHT22;2277;51.626;7.516;2023-02-28T09:58:02;9.00;93.00
4530;DHT22;2277;51.626;7.516;2023-02-28T10:00:39;9.20;90.00
4530;DHT22;2277;51.626;7.516;2023-02-28T10:05:50;9.60;83.90
4530;DHT22;2277;51.626;7.516;2023-02-28T10:08:25;9.10;78.20
4530;DHT22;2277;51.626;7.516;2023-02-28T10:10:55;9.00;79.00
4530;DHT22;2277;51.626;7.516;2023-02-28T10:19:16;8.40;76.40
4530;DHT22;2277;51.626;7.516;2023-02-28T10:21:47;8.50;77.50
4530;DHT22;2277;51.626;7.516;2023-02-28T10:27:17;8.50;78.40
4530;DHT22;2277;51.626;7.516;2023-02-28T10:29:55;8.40;74.90
4530;DHT22;2277;51.626;7.516;2023-02-28T10:32:27;8.50;74.90
4530;DHT22;2277;51.626;7.516;2023-02-28T10:35:06;8.80;74.20
4530;DHT22;2277;51.626;7.516;2023-02-28T10:37:32;8.60;70.20
4530;DHT22;2277;51.626;7.516;2023-02-28T10:40:04;8.80;72.10
4530;DHT22;2277;51.626;7.516;2023-02-28T10:42:31;9.10;71.20
4530;DHT22;2277;51.626;7.516;2023-02-28T10:45:13;9.10;69.20
4530;DHT22;2277;51.626;7.516;2023-02-28T10:50:28;9.60;72.90
4530;DHT22;2277;51.626;7.516;2023-02-28T10:52:54;9.50;68.50
4530;DHT22;2277;51.626;7.516;2023-02-28T10:55:23;9.10;67.70
4530;DHT22;2277;51.626;7.516;2023-02-28T10:57:51;9.10;69.10
4530;DHT22;2277;51.626;7.516;2023-02-28T11:00:22;8.90;67.80
4530;DHT22;2277;51.626;7.516;2023-02-28T11:02:50;9.00;70.70
4530;DHT22;2277;51.626;7.516;2023-02-28T11:05:29;9.00;69.20
4530;DHT22;2277;51.626;7.516;2023-02-28T11:08:22;9.30;70.50
4530;DHT22;2277;51.626;7.516;2023-02-28T11:10:54;9.30;69.20
4530;DHT22;2277;51.626;7.516;2023-02-28T11:13:29;9.30;68.90
4530;DHT22;2277;51.626;7.516;2023-02-28T11:15:59;9.10;67.60
4530;DHT22;2277;51.626;7.516;2023-02-28T11:18:42;9.30;68.40
4530;DHT22;2277;51.626;7.516;2023-02-28T11:21:09;9.20;68.20
4530;DHT22;2277;51.626;7.516;2023-02-28T11:23:40;9.10;68.60
4530;DHT22;2277;51.626;7.516;2023-02-28T11:26:06;9.10;67.30
4530;DHT22;2277;51.626;7.516;2023-02-28T11:28:38;9.40;68.70
4530;DHT22;2277;51.626;7.516;2023-02-28T11:33:43;9.70;70.60
4530;DHT22;2277;51.626;7.516;2023-02-28T11:38:50;10.00;68.90
4530;DHT22;2277;51.626;7.516;2023-02-28T11:42:11;10.20;69.10
4530;DHT22;2277;51.626;7.516;2023-02-28T11:47:16;9.90;69.10
4530;DHT22;2277;51.626;7.516;2023-02-28T11:52:45;10.60;71.40
4530;DHT22;2277;51.626;7.516;2023-02-28T11:55:16;11.10;71.90
4530;DHT22;2277;51.626;7.516;2023-02-28T11:58:09;11.40;70.80
4530;DHT22;2277;51.626;7.516;2023-02-28T12:01:15;10.90;68.50
4530;DHT22;2277;51.626;7.516;2023-02-28T12:11:58;10.80;69.20
4530;DHT22;2277;51.626;7.516;2023-02-28T12:20:33;10.30;72.30
4530;DHT22;2277;51.626;7.516;2023-02-28T12:28:16;11.40;70.40
4530;DHT22;2277;51.626;7.516;2023-02-28T12:31:18;11.50;68.60
4530;DHT22;2277;51.626;7.516;2023-02-28T12:33:51;11.60;72.00
4530;DHT22;2277;51.626;7.516;2023-02-28T12:36:19;11.90;69.60
4530;DHT22;2277;51.626;7.516;2023-02-28T12:39:17;11.60;65.30
4530;DHT22;2277;51.626;7.516;2023-02-28T12:41:57;11.60;67.30
4530;DHT22;2277;51.626;7.516;2023-02-28T12:47:00;11.40;65.50
4530;DHT22;2277;51.626;7.516;2023-02-28T12:49:37;11.20;66.90
4530;DHT22;2277;51.626;7.516;2023-02-28T12:52:04;11.00;68.70
4530;DHT22;2277;51.626;7.516;2023-02-28T12:54:52;11.00;69.50
4530;DHT22;2277;51.626;7.516;2023-02-28T12:57:29;10.60;68.90
4530;DHT22;2277;51.626;7.516;2023-02-28T13:00:03;10.90;71.50
4530;DHT22;2277;51.626;7.516;2023-02-28T13:02:33;11.30;73.20
4530;DHT22;2277;51.626;7.516;2023-02-28T13:05:46;11.50;69.70
4530;DHT22;2277;51.626;7.516;2023-02-28T13:08:43;11.60;67.20
4530;DHT22;2277;51.626;7.516;2023-02-28T13:14:00;11.60;68.10
4530;DHT22;2277;51.626;7.516;2023-02-28T13:16:26;11.50;66.00
4530;DHT22;2277;51.626;7.516;2023-02-28T13:18:52;11.40;69.40
4530;DHT22;2277;51.626;7.516;2023-02-28T13:21:42;11.70;69.40
4530;DHT22;2277;51.626;7.516;2023-02-28T13:24:08;12.10;67.90
4530;DHT22;2277;51.626;7.516;2023-02-28T13:34:35;11.40;66.70
4530;DHT22;2277;51.626;7.516;2023-02-28T13:39:55;11.60;69.40
4530;DHT22;2277;51.626;7.516;2023-02-28T13:56:01;10.60;65.90
4530;DHT22;2277;51.626;7.516;2023-02-28T14:06:35;10.40;67.90
4530;DHT22;2277;51.626;7.516;2023-02-28T14:11:39;10.60;67.40
4530;DHT22;2277;51.626;7.516;2023-02-28T14:14:07;10.70;66.30
4530;DHT22;2277;51.626;7.516;2023-02-28T14:16:41;10.80;66.40
4530;DHT22;2277;51.626;7.516;2023-02-28T14:19:21;11.20;70.80
4530;DHT22;2277;51.626;7.516;2023-02-28T14:24:59;12.10;73.00
4530;DHT22;2277;51.626;7.516;2023-02-28T14:30:24;12.10;70.60
4530;DHT22;2277;51.626;7.516;2023-02-28T14:33:13;12.30;70.00
4530;DHT22;2277;51.626;7.516;2023-02-28T14:36:14;12.60;71.10
4530;DHT22;2277;51.626;7.516;2023-02-28T14:38:49;12.70;67.70
4530;DHT22;2277;51.626;7.516;2023-02-28T14:41:38;12.80;65.90
4530;DHT22;2277;51.626;7.516;2023-02-28T14:44:22;12.70;66.00
4530;DHT22;2277;51.626;7.516;2023-02-28T14:46:54;12.80;65.90
4530;DHT22;2277;51.626;7.516;2023-02-28T14:49:32;12.80;67.20
4530;DHT22;2277;51.626;7.516;2023-02-28T14:54:31;12.10;63.50
4530;DHT22;2277;51.626;7.516;2023-02-28T14:56:57;12.20;68.00
4530;DHT22;2277;51.626;7.516;2023-02-28T14:59:34;12.30;67.00
4530;DHT22;2277;51.626;7.516;2023-02-28T15:02:23;12.20;66.40
4530;DHT22;2277;51.626;7.516;2023-02-28T15:07:42;12.20;65.40
4530;DHT22;2277;51.626;7.516;2023-02-28T15:10:21;12.20;64.30
4530;DHT22;2277;51.626;7.516;2023-02-28T15:13:02;12.50;64.60
4530;DHT22;2277;51.626;7.516;2023-02-28T15:18:14;12.60;65.40
4530;DHT22;2277;51.626;7.516;2023-02-28T15:20:42;12.30;61.90
4530;DHT22;2277;51.626;7.516;2023-02-28T15:23:09;12.20;62.70
4530;DHT22;2277;51.626;7.516;2023-02-28T15:25:36;11.60;62.30
4530;DHT22;2277;51.626;7.516;2023-02-28T15:28:02;11.50;63.30
4530;DHT22;2277;51.626;7.516;2023-02-28T15:30:29;10.70;62.70
4530;DHT22;2277;51.626;7.516;2023-02-28T15:35:34;11.30;64.90
4530;DHT22;2277;51.626;7.516;2023-02-28T15:38:01;11.30;65.00
4530;DHT22;2277;51.626;7.516;2023-02-28T15:40:32;10.80;64.20
4530;DHT22;2277;51.626;7.516;2023-02-28T15:43:05;10.80;65.30
4530;DHT22;2277;51.626;7.516;2023-02-28T15:45:36;10.60;65.40
4530;DHT22;2277;51.626;7.516;2023-02-28T15:48:05;10.70;66.30
4530;DHT22;2277;51.626;7.516;2023-02-28T15:50:31;10.90;65.80
4530;DHT22;2277;51.626;7.516;2023-02-28T15:52:57;10.80;64.90
4530;DHT22;2277;51.626;7.516;2023-02-28T15:55:26;10.80;66.20
4530;DHT22;2277;51.626;7.516;2023-02-28T15:57:54;10.90;66.00
4530;DHT22;2277;51.626;7.516;2023-02-28T16:00:25;10.80;66.40
4530;DHT22;2277;51.626;7.516;2023-02-28T16:02:51;10.80;68.10
4530;DHT22;2277;51.626;7.516;2023-02-28T16:05:24;10.40;65.40
4530;DHT22;2277;51.626;7.516;2023-02-28T16:07:54;10.30;67.00
4530;DHT22;2277;51.626;7.516;2023-02-28T16:10:21;10.50;68.50
4530;DHT22;2277;51.626;7.516;2023-02-28T16:12:52;10.50;69.30
4530;DHT22;2277;51.626;7.516;2023-02-28T16:15:28;10.60;68.70
4530;DHT22;2277;51.626;7.516;2023-02-28T16:17:54;10.60;69.10
4530;DHT22;2277;51.626;7.516;2023-02-28T16:20:23;10.40;67.50
4530;DHT22;2277;51.626;7.516;2023-02-28T16:22:49;10.40;68.60
4530;DHT22;2277;51.626;7.516;2023-02-28T16:25:21;10.10;67.90
4530;DHT22;2277;51.626;7.516;2023-02-28T16:27:49;9.90;69.90
4530;DHT22;2277;51.626;7.516;2023-02-28T16:30:20;9.80;69.70
4530;DHT22;2277;51.626;7.516;2023-02-28T16:32:46;9.70;70.10
4530;DHT22;2277;51.626;7.516;2023-02-28T16:35:11;9.70;71.80
4530;DHT22;2277;51.626;7.516;2023-02-28T16:37:39;9.80;71.50
4530;DHT22;2277;51.626;7.516;2023-02-28T16:40:05;9.60;70.80
4530;DHT22;2277;51.626;7.516;2023-02-28T16:42:31;9.50;71.70
4530;DHT22;2277;51.626;7.516;2023-02-28T16:44:57;9.20;70.70
4530;DHT22;2277;51.626;7.516;2023-02-28T16:47:23;9.10;71.60
4530;DHT22;2277;51.626;7.516;2023-02-28T16:49:52;8.80;71.90
4530;DHT22;2277;51.626;7.516;2023-02-28T16:52:17;8.90;73.20
4530;DHT22;2277;51.626;7.516;2023-02-28T16:54:43;9.10;74.50
4530;DHT22;2277;51.626;7.516;2023-02-28T16:57:20;9.20;75.40
4530;DHT22;2277;51.626;7.516;2023-02-28T16:59:47;9.30;74.80
4530;DHT22;2277;51.626;7.516;2023-02-28T17:02:14;9.30;74.60
4530;DHT22;2277;51.626;7.516;2023-02-28T17:04:41;9.30;75.40
4530;DHT22;2277;51.626;7.516;2023-02-28T17:07:12;9.30;74.90
4530;DHT22;2277;51.626;7.516;2023-02-28T17:09:38;9.30;74.80
4530;DHT22;2277;51.626;7.516;2023-02-28T17:12:04;9.30;75.50
4530;DHT22;2277;51.626;7.516;2023-02-28T17:14:30;9.30;76.50
4530;DHT22;2277;51.626;7.516;2023-02-28T17:16:55;9.30;76.30
4530;DHT22;2277;51.626;7.516;2023-02-28T17:19:21;9.30;76.70
4530;DHT22;2277;51.626;7.516;2023-02-28T17:21:47;9.30;77.20
4530;DHT22;2277;51.626;7.516;2023-02-28T17:24:12;9.20;77.30
4530;DHT22;2277;51.626;7.516;2023-02-28T17:26:41;9.20;77.30
4530;DHT22;2277;51.626;7.516;2023-02-28T17:29:19;9.10;77.30
4530;DHT22;2277;51.626;7.516;2023-02-28T17:31:45;9.10;78.30
4530;DHT22;2277;51.626;7.516;2023-02-28T17:34:11;9.00;78.80
4530;DHT22;2277;51.626;7.516;2023-02-28T17:36:37;9.00;78.40
4530;DHT22;2277;51.626;7.516;2023-02-28T17:39:04;8.90;79.10
4530;DHT22;2277;51.626;7.516;2023-02-28T17:41:34;8.90;79.30
4530;DHT22;2277;51.626;7.516;2023-02-28T17:43:59;8.80;79.50
4530;DHT22;2277;51.626;7.516;2023-02-28T17:46:25;8.70;79.60
4530;DHT22;2277;51.626;7.516;2023-02-28T17:48:52;8.70;80.30
4530;DHT22;2277;51.626;7.516;2023-02-28T17:51:20;8.60;79.80
4530;DHT22;2277;51.626;7.516;2023-02-28T17:53:46;8.60;80.40
4530;DHT22;2277;51.626;7.516;2023-02-28T17:56:17;8.50;80.70
4530;DHT22;2277;51.626;7.516;2023-02-28T17:58:44;8.50;81.00
4530;DHT22;2277;51.626;7.516;2023-02-28T18:01:09;8.40;81.10
4530;DHT22;2277;51.626;7.516;2023-02-28T18:03:36;8.40;81.70
4530;DHT22;2277;51.626;7.516;2023-02-28T18:06:02;8.30;82.20
4530;DHT22;2277;51.626;7.516;2023-02-28T18:08:28;8.30;82.50
4530;DHT22;2277;51.626;7.516;2023-02-28T18:10:54;8.20;82.60
4530;DHT22;2277;51.626;7.516;2023-02-28T18:13:19;8.20;83.00
4530;DHT22;2277;51.626;7.516;2023-02-28T18:15:45;8.10;83.20
4530;DHT22;2277;51.626;7.516;2023-02-28T18:18:10;8.00;83.60
4530;DHT22;2277;51.626;7.516;2023-02-28T18:20:36;8.00;84.10
4530;DHT22;2277;51.626;7.516;2023-02-28T18:23:02;8.00;84.70
4530;DHT22;2277;51.626;7.516;2023-02-28T18:25:28;8.00;85.00
4530;DHT22;2277;51.626;7.516;2023-02-28T18:27:54;7.90;85.00
4530;DHT22;2277;51.626;7.516;2023-02-28T18:30:23;7.80;84.80
4530;DHT22;2277;51.626;7.516;2023-02-28T18:32:49;7.80;85.40
4530;DHT22;2277;51.626;7.516;2023-02-28T18:35:15;7.70;86.10
4530;DHT22;2277;51.626;7.516;2023-02-28T18:37:41;7.70;86.20
4530;DHT22;2277;51.626;7.516;2023-02-28T18:40:07;7.70;86.60
4530;DHT22;2277;51.626;7.516;2023-02-28T18:42:32;7.60;86.40
4530;DHT22;2277;51.626;7.516;2023-02-28T18:44:58;7.60;86.50
4530;DHT22;2277;51.626;7.516;2023-02-28T18:47:24;7.60;87.50
4530;DHT22;2277;51.626;7.516;2023-02-28T18:49:50;7.60;87.60
4530;DHT22;2277;51.626;7.516;2023-02-28T18:52:16;7.50;87.40
4530;DHT22;2277;51.626;7.516;2023-02-28T18:54:42;7.40;87.90
4530;DHT22;2277;51.626;7.516;2023-02-28T18:57:07;7.40;87.90